Leyendecker II PSRC Data

Date Time Air Temperature Relative Humidity Dewpoint Windchill Heat Index Wind Speed Wind Dir. Rain Solar Radiation Soil Temperature
2m 2m 3m 3m 10cm
US/Mountain F % F F F MPH deg in MJ/m^2 F
max avg avg
2021-07-22 00:05:00 73.2 44.3 50.1 73.2 73.2 3.5 4.0 3.3 139.9 136.9 0.00 0.0000000 78.6
2021-07-22 00:10:00 73.5 43.3 49.8 73.5 73.5 3.3 4.6 3.5 142.3 141.1 0.00 0.0000000 78.5
2021-07-22 00:15:00 73.5 42.6 49.4 73.5 73.5 5.8 5.8 3.5 144.0 144.4 0.00 0.0000000 78.5
2021-07-22 00:20:00 74.0 41.9 49.4 74.0 74.0 4.6 6.0 4.1 141.3 140.2 0.00 0.0000000 78.5
2021-07-22 00:25:00 74.2 41.7 49.4 74.2 74.2 3.5 4.7 4.0 126.9 146.0 0.00 0.0000000 78.5
2021-07-22 00:30:00 74.3 41.2 49.2 74.3 74.3 3.8 4.7 3.7 139.0 140.5 0.00 0.0000000 78.5
2021-07-22 00:35:00 74.1 41.8 49.4 74.1 74.1 2.8 4.0 3.4 141.1 141.3 0.00 0.0000000 78.4
2021-07-22 00:40:00 73.9 41.6 49.1 73.9 73.9 3.8 4.4 3.4 139.3 140.0 0.00 0.0000000 78.4
2021-07-22 00:45:00 73.7 42.3 49.3 73.7 73.7 3.5 4.6 3.4 154.3 136.4 0.00 0.0000000 78.4
2021-07-22 00:50:00 73.3 43.0 49.5 73.3 73.3 2.8 4.2 3.5 140.5 143.3 0.00 0.0000000 78.4
2021-07-22 00:55:00 73.2 42.9 49.3 73.2 73.2 4.0 4.4 3.6 126.1 141.9 0.00 0.0000000 78.3
2021-07-22 01:00:00 72.9 43.8 49.6 72.9 72.9 3.0 4.4 3.1 128.1 136.6 0.00 0.0000000 78.3
2021-07-22 01:05:00 72.9 43.6 49.4 72.9 72.9 3.7 4.9 3.7 128.4 135.8 0.00 0.0000000 78.3
2021-07-22 01:10:00 73.0 42.7 49.0 73.0 73.0 4.2 5.5 4.2 150.0 137.4 0.00 0.0000000 78.3
2021-07-22 01:15:00 73.0 42.9 49.1 73.0 73.0 4.0 5.5 4.3 159.5 141.8 0.00 0.0000000 78.2
2021-07-22 01:20:00 72.9 42.9 49.1 72.9 72.9 3.7 5.1 4.1 127.1 147.5 0.00 0.0000000 78.2
2021-07-22 01:25:00 73.4 42.0 49.0 73.4 73.4 3.5 5.8 4.5 145.5 138.8 0.00 0.0000000 78.2
2021-07-22 01:30:00 73.7 41.5 48.9 73.7 73.7 3.8 6.2 4.6 104.4 139.2 0.00 0.0000000 78.2
2021-07-22 01:35:00 73.7 41.2 48.7 73.7 73.7 4.0 4.9 4.1 123.7 135.1 0.00 0.0000000 78.1
2021-07-22 01:40:00 73.7 41.1 48.5 73.7 73.7 3.3 5.5 4.1 114.4 134.0 0.00 0.0000000 78.1
2021-07-22 01:45:00 73.9 41.1 48.8 73.9 73.9 2.6 5.6 3.8 146.5 133.5 0.00 0.0000000 78.1
2021-07-22 01:50:00 74.0 40.1 48.2 74.0 74.0 3.7 5.1 3.8 136.7 134.1 0.00 0.0000000 78.0
2021-07-22 01:55:00 74.0 39.8 48.0 74.0 74.0 4.4 7.1 3.9 143.2 137.6 0.00 0.0000000 78.0
2021-07-22 02:00:00 74.2 39.9 48.3 74.2 74.2 5.5 5.5 3.6 126.8 130.6 0.00 0.0000000 78.0
2021-07-22 02:05:00 75.1 38.0 47.7 75.1 75.1 3.8 6.2 4.8 119.1 120.2 0.00 0.0000000 78.0
2021-07-22 02:10:00 75.1 38.2 47.9 75.1 75.1 4.2 5.8 4.3 117.0 128.3 0.00 0.0000000 78.0
2021-07-22 02:15:00 74.6 39.3 48.2 74.6 74.6 4.4 5.8 3.9 119.7 137.2 0.00 0.0000000 78.0
2021-07-22 02:20:00 74.0 40.5 48.4 74.0 74.0 3.8 4.7 3.8 134.5 139.5 0.00 0.0000000 78.0
2021-07-22 02:25:00 73.7 40.4 48.1 73.7 73.7 5.3 6.3 4.5 146.9 136.2 0.00 0.0000000 77.9
2021-07-22 02:30:00 73.5 40.4 48.0 73.5 73.5 5.3 5.5 4.3 120.6 133.4 0.00 0.0000000 77.9
2021-07-22 02:35:00 73.8 40.2 48.1 73.8 73.8 4.0 6.9 4.6 111.7 129.7 0.00 0.0000000 77.8
2021-07-22 02:40:00 74.0 40.0 48.1 74.0 74.0 4.4 6.0 4.1 129.5 133.4 0.00 0.0000000 77.8
2021-07-22 02:45:00 73.9 39.3 47.6 73.9 73.9 4.9 5.5 4.3 110.3 139.4 0.00 0.0000000 77.8
2021-07-22 02:50:00 74.0 39.3 47.6 74.0 74.0 3.8 5.5 4.0 145.0 140.8 0.00 0.0000000 77.8
2021-07-22 02:55:00 74.0 38.9 47.4 74.0 74.0 3.8 5.8 4.2 132.3 140.5 0.00 0.0000000 77.8
2021-07-22 03:00:00 74.1 39.5 47.9 74.1 74.1 3.1 6.0 4.2 140.8 136.4 0.00 0.0000000 77.8
2021-07-22 03:05:00 74.1 39.2 47.8 74.1 74.1 3.1 5.3 4.1 142.6 139.8 0.00 0.0000000 77.7
2021-07-22 03:10:00 74.0 39.3 47.7 74.0 74.0 4.0 5.6 3.8 166.1 144.1 0.00 0.0000000 77.7
2021-07-22 03:15:00 73.9 39.1 47.5 73.9 73.9 5.3 5.5 3.7 161.6 152.2 0.00 0.0000000 77.7
2021-07-22 03:20:00 73.3 41.5 48.5 73.3 73.3 2.6 5.1 3.3 177.9 172.2 0.00 0.0000000 77.7
2021-07-22 03:25:00 72.8 44.2 49.7 72.8 72.8 2.4 4.4 2.9 206.3 166.6 0.00 0.0000000 77.6
2021-07-22 03:30:00 71.6 45.2 49.3 71.6 71.6 2.1 3.3 2.3 195.0 193.8 0.00 0.0000000 77.6
2021-07-22 03:35:00 71.9 42.3 47.7 71.9 71.9 3.8 4.0 2.9 159.1 157.8 0.00 0.0000000 77.6
2021-07-22 03:40:00 71.9 44.1 48.9 71.9 71.9 3.1 3.8 3.1 172.9 172.0 0.00 0.0000000 77.6
2021-07-22 03:45:00 71.4 44.4 48.6 71.4 71.4 3.5 4.4 3.4 173.3 174.9 0.00 0.0000000 77.6
2021-07-22 03:50:00 71.0 48.2 50.4 71.0 71.0 3.1 4.4 3.5 180.9 180.1 0.00 0.0000000 77.5
2021-07-22 03:55:00 70.5 49.9 50.9 70.5 70.5 2.1 3.8 3.2 177.1 174.9 0.00 0.0000000 77.5
2021-07-22 04:00:00 69.4 52.7 51.3 69.4 69.4 3.5 3.7 2.8 196.7 183.5 0.00 0.0000000 77.5
2021-07-22 04:05:00 68.4 55.6 51.9 68.4 68.4 2.8 4.0 3.4 187.4 183.8 0.00 0.0000000 77.5
2021-07-22 04:10:00 67.9 54.1 50.7 67.9 67.9 3.3 4.2 3.2 177.5 182.1 0.00 0.0000000 77.5
2021-07-22 04:15:00 68.3 53.8 50.9 68.3 68.3 3.1 4.0 3.2 157.4 166.5 0.00 0.0000000 77.5
2021-07-22 04:20:00 68.4 54.9 51.6 68.4 68.4 2.6 4.2 3.2 169.8 184.1 0.00 0.0000000 77.4
2021-07-22 04:25:00 67.8 55.2 51.1 67.8 67.8 1.9 3.1 2.0 239.4 222.7 0.00 0.0000000 77.4
2021-07-22 04:30:00 67.4 55.9 51.1 67.4 67.4 1.9 2.4 1.8 219.0 221.5 0.00 0.0000000 77.4
2021-07-22 04:35:00 67.4 54.5 50.4 67.4 67.4 2.2 3.1 2.5 243.4 224.8 0.00 0.0000000 77.4
2021-07-22 04:40:00 67.3 56.5 51.3 67.3 67.3 1.0 2.6 1.4 262.7 245.6 0.00 0.0000000 77.4
2021-07-22 04:45:00 66.3 59.9 52.0 66.3 66.3 2.6 2.6 1.5 291.3 285.3 0.00 0.0000000 77.3
2021-07-22 04:50:00 65.7 57.8 50.4 65.7 65.7 2.6 3.3 2.8 205.1 250.8 0.00 0.0000000 77.3
2021-07-22 04:55:00 67.2 53.5 49.7 67.2 67.2 4.2 4.7 3.9 192.5 208.6 0.00 0.0000000 77.3
2021-07-22 05:00:00 66.9 57.1 51.3 66.9 66.9 2.8 3.7 3.0 208.6 193.2 0.00 0.0000000 77.3
2021-07-22 05:05:00 66.7 56.0 50.5 66.7 66.7 2.1 2.8 2.3 247.6 210.1 0.00 0.0000000 77.3
2021-07-22 05:10:00 66.8 56.1 50.6 66.8 66.8 3.1 3.8 2.6 139.0 166.2 0.00 0.0000000 77.3
2021-07-22 05:15:00 66.8 55.7 50.5 66.8 66.8 2.8 3.3 2.9 177.3 157.6 0.00 0.0000000 77.3
2021-07-22 05:20:00 66.5 58.7 51.6 66.5 66.5 2.2 4.0 3.0 174.4 194.5 0.00 0.0000000 77.2
2021-07-22 05:25:00 65.7 60.7 51.8 65.7 65.7 1.3 2.6 1.7 161.6 156.3 0.00 0.0000000 77.2
2021-07-22 05:30:00 65.3 60.2 51.2 65.3 65.3 1.7 2.2 1.6 237.0 224.8 0.00 0.0000000 77.2
2021-07-22 05:35:00 65.0 61.1 51.2 65.0 65.0 0.0 1.7 1.1 215.3 222.9 0.00 0.0000000 77.2
2021-07-22 05:40:00 64.9 60.5 51.0 64.9 64.9 2.1 2.4 1.5 175.9 182.5 0.00 0.0000000 77.2
2021-07-22 05:45:00 65.0 60.9 51.2 65.0 65.0 1.5 2.6 1.8 240.5 206.4 0.00 0.0000000 77.1
2021-07-22 05:50:00 64.6 65.2 52.6 64.6 64.6 3.1 3.1 1.8 316.8 279.2 0.00 0.0000000 77.1
2021-07-22 05:55:00 63.0 69.6 52.9 63.0 63.0 2.8 4.6 3.6 306.9 305.6 0.00 0.0000000 77.1
2021-07-22 06:00:00 62.9 69.5 52.7 62.9 62.9 1.5 2.6 2.0 298.7 298.9 0.00 0.0000000 77.1
2021-07-22 06:05:00 62.7 70.7 53.1 62.7 62.7 1.2 1.3 0.5 229.8 285.8 0.00 0.0000000 77.0
2021-07-22 06:10:00 62.5 71.0 53.0 62.5 62.5 1.2 1.5 1.3 175.4 184.2 0.00 0.0000000 77.0
2021-07-22 06:15:00 62.5 70.9 52.9 62.5 62.5 1.9 2.1 1.3 274.2 235.1 0.00 0.0000078 77.0
2021-07-22 06:20:00 62.0 75.9 54.3 62.0 62.0 3.7 3.7 2.4 336.1 310.5 0.00 0.0002770 77.0
2021-07-22 06:25:00 61.3 78.0 54.4 61.3 61.3 2.2 4.0 3.1 285.7 309.3 0.00 0.0007714 76.9
2021-07-22 06:30:00 61.3 78.3 54.5 61.3 61.3 2.4 3.0 2.5 299.3 292.9 0.00 0.0018302 76.9
2021-07-22 06:35:00 61.3 79.1 54.8 61.3 61.3 1.7 2.4 1.9 304.1 283.4 0.00 0.0031715 76.9
2021-07-22 06:40:00 61.4 77.4 54.2 61.4 61.4 1.0 1.9 1.4 246.8 278.1 0.00 0.0050772 76.9
2021-07-22 06:45:00 61.5 76.4 54.0 61.5 61.5 0.0 1.0 0.1 85.6 244.9 0.00 0.0071291 76.9
2021-07-22 06:50:00 61.8 75.7 54.0 61.8 61.8 0.0 0.8 0.1 20.5 40.5 0.00 0.0091190 76.9
2021-07-22 06:55:00 61.9 75.8 54.2 61.9 61.9 0.0 0.0 0.0 64.5 0.0 0.00 0.0106892 76.9
2021-07-22 07:00:00 62.1 78.0 55.1 62.1 62.1 0.0 0.0 0.0 327.2 0.0 0.00 0.0125996 76.8
2021-07-22 07:05:00 62.3 78.3 55.4 62.3 62.3 0.0 0.0 0.0 44.0 0.0 0.00 0.0146303 76.8
2021-07-22 07:10:00 62.6 77.0 55.3 62.6 62.6 0.0 2.8 1.3 263.1 48.5 0.00 0.0167047 76.8
2021-07-22 07:15:00 63.2 77.7 56.1 63.2 63.2 2.1 2.1 0.8 2.4 355.2 0.00 0.0189066 76.8
2021-07-22 07:20:00 64.0 73.8 55.4 64.0 64.0 3.3 3.5 2.9 3.8 351.1 0.00 0.0212909 76.8
2021-07-22 07:25:00 64.3 74.1 55.9 64.3 64.3 2.2 3.3 2.6 302.0 323.9 0.00 0.0269107 76.7
2021-07-22 07:30:00 64.9 72.2 55.7 64.9 64.9 3.1 3.1 2.3 270.3 288.0 0.00 0.0393099 76.7
2021-07-22 07:35:00 65.5 69.4 55.2 65.5 65.5 2.2 3.0 2.3 289.9 295.0 0.00 0.0433850 76.7
2021-07-22 07:40:00 66.1 68.5 55.4 66.1 66.1 2.8 4.0 3.0 313.8 302.1 0.00 0.0459461 76.7
2021-07-22 07:45:00 66.5 66.4 54.9 66.5 66.5 2.4 4.2 2.7 295.5 302.5 0.00 0.0392861 76.7
2021-07-22 07:50:00 67.2 66.2 55.5 67.2 67.2 1.0 2.1 1.4 264.0 273.1 0.00 0.0534688 76.7
2021-07-22 07:55:00 68.2 65.6 56.3 68.2 68.2 3.0 3.5 1.5 316.5 313.9 0.00 0.0640308 76.6
2021-07-22 08:00:00 68.7 62.9 55.6 68.7 68.7 3.0 4.0 3.5 311.0 317.5 0.00 0.0688774 76.7
2021-07-22 08:05:00 69.8 58.7 54.7 69.8 69.8 3.5 3.5 2.6 303.1 303.1 0.00 0.0735662 76.7
2021-07-22 08:10:00 70.7 61.3 56.8 70.7 70.7 2.2 3.5 2.6 252.4 299.0 0.00 0.0746722 76.6
2021-07-22 08:15:00 71.6 57.5 55.8 71.6 71.6 1.0 2.4 1.6 215.6 264.9 0.00 0.0834710 76.6
2021-07-22 08:20:00 72.4 54.1 54.9 72.4 72.4 2.6 2.8 2.0 256.6 272.9 0.00 0.0905850 76.6
2021-07-22 08:25:00 72.9 54.1 55.4 72.9 72.9 3.0 3.8 3.2 316.2 269.6 0.00 0.0955627 76.6
2021-07-22 08:30:00 73.4 53.3 55.4 73.4 73.4 2.2 4.6 3.4 263.0 269.4 0.00 0.1010757 76.6
2021-07-22 08:35:00 74.3 52.6 55.8 74.3 74.3 3.7 3.7 2.6 281.5 273.9 0.00 0.1063259 76.6
2021-07-22 08:40:00 74.4 52.9 56.1 74.4 74.4 3.0 4.9 3.7 314.8 293.5 0.00 0.1105714 76.6
2021-07-22 08:45:00 75.0 47.1 53.5 75.0 75.0 3.7 4.6 3.3 309.8 303.4 0.00 0.1149660 76.6
2021-07-22 08:50:00 75.1 50.3 55.3 75.1 75.1 4.0 4.7 3.8 297.4 285.5 0.00 0.1197281 76.6
2021-07-22 08:55:00 75.7 48.7 55.0 75.7 75.7 3.5 4.0 3.3 311.6 308.2 0.00 0.1264933 76.6
2021-07-22 09:00:00 76.2 49.1 55.7 76.2 76.2 3.1 4.6 3.7 282.5 306.0 0.00 0.1321681 76.6
2021-07-22 09:05:00 76.7 51.0 57.2 76.7 76.7 3.0 4.7 3.7 305.4 295.8 0.00 0.1368272 76.6
2021-07-22 09:10:00 77.4 43.2 53.3 77.4 77.4 2.8 4.2 2.9 293.4 278.3 0.00 0.1429398 76.6
2021-07-22 09:15:00 77.8 42.7 53.3 77.8 77.8 2.6 3.1 2.3 217.2 231.3 0.00 0.1480734 76.6
2021-07-22 09:20:00 78.6 41.9 53.6 78.6 78.6 2.1 2.4 1.7 149.0 166.3 0.00 0.1527781 76.6
2021-07-22 09:25:00 79.7 46.0 57.1 79.7 79.7 1.3 3.3 1.8 327.4 283.3 0.00 0.1580559 76.6
2021-07-22 09:30:00 79.9 44.4 56.2 79.9 79.9 3.3 4.4 2.4 162.1 233.7 0.00 0.1628814 76.7
2021-07-22 09:35:00 79.6 46.3 57.2 79.6 79.6 1.7 4.7 3.1 137.5 136.8 0.00 0.1728285 76.7
2021-07-22 09:40:00 80.0 46.5 57.7 80.0 80.0 5.1 5.3 3.1 162.6 129.5 0.00 0.1748284 76.7
2021-07-22 09:45:00 80.0 44.3 56.3 80.0 80.0 3.1 4.9 3.4 140.8 154.0 0.00 0.1896004 76.7
2021-07-22 09:50:00 80.1 46.1 57.5 80.1 80.5 4.6 5.5 4.2 161.7 171.9 0.00 0.2028404 76.7
2021-07-22 09:55:00 80.5 43.0 56.0 80.5 80.5 2.4 5.3 3.5 155.4 154.6 0.00 0.2239949 76.7
2021-07-22 10:00:00 80.2 40.8 54.2 80.2 80.1 5.1 6.0 4.4 173.3 167.2 0.00 0.1614169 76.7
2021-07-22 10:05:00 80.7 40.7 54.6 80.7 80.5 3.8 5.1 4.0 117.3 148.0 0.00 0.1491839 76.8
2021-07-22 10:10:00 80.8 35.2 50.7 80.8 80.8 5.8 6.9 5.0 155.6 153.2 0.00 0.1425513 76.8
2021-07-22 10:15:00 81.2 33.6 49.9 81.2 81.2 6.7 8.0 5.9 142.8 154.7 0.00 0.2094578 76.8
2021-07-22 10:20:00 82.0 35.8 52.3 82.0 82.0 5.6 6.9 5.3 145.1 141.1 0.00 0.2192429 76.8
2021-07-22 10:25:00 82.5 34.4 51.6 82.5 82.5 6.7 7.2 4.8 112.4 131.4 0.00 0.2032786 76.9
2021-07-22 10:30:00 81.9 36.2 52.5 81.9 81.9 4.9 7.4 5.6 206.6 155.2 0.00 0.1635128 76.9
2021-07-22 10:35:00 82.4 33.5 50.8 82.4 82.4 6.0 9.0 6.7 178.2 166.1 0.00 0.2182279 76.9
2021-07-22 10:40:00 82.6 30.5 48.5 82.6 82.6 6.7 9.4 7.1 140.0 162.4 0.00 0.2278255 77.0
2021-07-22 10:45:00 82.2 31.8 49.2 82.2 82.2 4.9 9.9 6.2 151.3 150.4 0.00 0.1392306 77.0
2021-07-22 10:50:00 82.0 32.8 49.9 82.0 82.0 7.4 10.1 6.3 115.9 145.3 0.00 0.1870016 77.0
2021-07-22 10:55:00 81.7 35.1 51.5 81.7 81.7 5.6 7.6 5.7 125.4 154.2 0.00 0.1293208 77.0
2021-07-22 11:00:00 81.4 33.9 50.3 81.4 81.4 6.7 8.0 5.6 130.3 143.7 0.00 0.1460920 77.1
2021-07-22 11:05:00 81.3 33.6 49.9 81.3 81.3 6.5 7.1 5.6 135.1 137.9 0.00 0.1452249 77.1
2021-07-22 11:10:00 82.1 34.8 51.6 82.1 82.1 5.8 7.8 5.3 122.9 128.4 0.00 0.2564942 77.1
2021-07-22 11:15:00 82.5 31.8 49.6 82.5 82.5 6.3 8.8 6.4 161.6 143.5 0.00 0.2863237 77.2
2021-07-22 11:20:00 82.9 30.9 49.1 82.9 82.9 6.2 8.1 5.9 101.2 141.1 0.00 0.2328169 77.2
2021-07-22 11:25:00 82.9 35.0 52.5 82.9 82.9 3.5 8.5 6.0 176.6 154.0 0.00 0.2651277 77.2
2021-07-22 11:30:00 83.4 34.3 52.4 83.4 83.4 3.1 7.1 5.2 168.6 134.9 0.00 0.2633463 77.2
2021-07-22 11:35:00 83.4 30.4 49.1 83.4 83.4 7.2 8.1 6.3 116.1 142.2 0.00 0.2316346 77.3
2021-07-22 11:40:00 83.2 32.1 50.3 83.2 83.2 7.4 8.8 6.1 179.7 153.5 0.00 0.1927979 77.3
2021-07-22 11:45:00 83.8 32.9 51.5 83.8 83.8 5.5 8.3 5.8 157.2 142.9 0.00 0.2749898 77.3
2021-07-22 11:50:00 84.6 31.8 51.4 84.6 84.6 3.3 8.0 5.8 145.6 139.8 0.00 0.3221702 77.3
2021-07-22 11:55:00 85.1 28.8 49.1 85.1 85.1 6.3 8.3 6.1 161.5 146.4 0.00 0.2869648 77.3
2021-07-22 12:00:00 84.1 31.5 50.7 84.1 84.1 4.0 9.9 5.4 140.8 150.8 0.00 0.1342509 77.4
2021-07-22 12:05:00 84.8 33.0 52.5 84.8 84.8 5.8 7.4 5.3 160.4 149.8 0.00 0.2504220 77.4
2021-07-22 12:10:00 84.2 32.9 51.9 84.2 84.2 4.6 7.2 5.7 136.2 137.5 0.00 0.1548947 77.5
2021-07-22 12:15:00 84.8 33.7 53.1 84.8 84.8 4.9 8.5 5.0 192.4 152.0 0.00 0.2244226 77.5
2021-07-22 12:20:00 85.0 34.7 54.1 85.0 85.0 6.7 6.7 4.6 147.2 144.2 0.00 0.1903000 77.5
2021-07-22 12:25:00 85.1 30.2 50.4 85.1 85.1 4.9 7.1 5.2 163.3 163.6 0.00 0.1847684 77.5
2021-07-22 12:30:00 84.8 36.6 55.3 84.8 84.8 3.1 5.6 3.9 142.9 143.5 0.00 0.1340083 77.6
2021-07-22 12:35:00 85.1 32.6 52.4 85.1 85.1 4.9 6.0 4.0 163.5 158.1 0.00 0.1594860 77.6
2021-07-22 12:40:00 85.2 33.0 52.9 85.2 85.2 6.9 7.2 5.5 155.3 160.8 0.00 0.2136031 77.6
2021-07-22 12:45:00 85.4 33.2 53.2 85.4 85.4 5.5 7.6 5.8 154.5 159.9 0.00 0.1844253 77.7
2021-07-22 12:50:00 85.7 30.0 50.7 85.7 85.7 3.8 8.3 5.7 170.2 159.7 0.00 0.2386534 77.7
2021-07-22 12:55:00 85.7 33.3 53.5 85.7 85.7 4.0 7.2 5.2 178.9 158.1 0.00 0.1470935 77.7
2021-07-22 13:00:00 85.6 31.4 51.9 85.6 85.6 3.8 6.0 4.5 155.2 155.9 0.00 0.1405269 77.8
2021-07-22 13:05:00 85.2 36.5 55.7 85.2 85.2 2.4 6.9 4.5 123.5 139.8 0.00 0.1438524 77.8
2021-07-22 13:10:00 85.7 31.0 51.6 85.7 85.7 3.3 4.0 2.9 182.4 136.8 0.00 0.1620475 77.8
2021-07-22 13:15:00 86.6 31.0 52.4 86.6 86.6 5.6 6.0 3.5 89.6 132.0 0.00 0.2704431 77.9
2021-07-22 13:20:00 86.4 33.1 54.0 86.4 86.4 3.1 6.3 5.0 114.0 125.6 0.00 0.2160112 77.9
2021-07-22 13:25:00 87.1 31.3 53.0 87.1 87.1 5.3 6.3 4.1 124.2 143.4 0.00 0.2133599 77.9
2021-07-22 13:30:00 86.5 29.6 51.1 86.5 86.5 3.7 6.2 4.7 132.9 132.3 0.00 0.1484778 77.9
2021-07-22 13:35:00 86.9 28.7 50.6 86.9 86.9 3.1 3.3 2.3 87.5 119.8 0.00 0.1400777 78.0
2021-07-22 13:40:00 87.7 32.1 54.3 87.7 87.7 4.4 4.6 3.0 142.7 94.5 0.00 0.3061441 78.0
2021-07-22 13:45:00 87.6 29.5 51.9 87.6 87.6 4.2 6.0 4.0 71.6 131.0 0.00 0.1559983 78.0
2021-07-22 13:50:00 87.5 33.8 55.5 87.5 87.5 3.8 4.9 3.6 91.9 132.7 0.00 0.1851067 78.0
2021-07-22 13:55:00 87.6 34.9 56.6 87.6 87.6 2.4 5.6 4.4 105.9 127.3 0.00 0.1629634 78.1
2021-07-22 14:00:00 88.2 29.3 52.2 88.2 88.2 3.8 5.3 4.0 129.8 115.9 0.00 0.2041010 78.1
2021-07-22 14:05:00 89.1 27.3 51.1 89.1 89.1 2.1 4.2 3.3 176.1 200.0 0.00 0.2403461 78.2
2021-07-22 14:10:00 90.5 34.5 58.7 90.5 90.5 1.5 4.2 2.4 148.6 201.0 0.00 0.3203729 78.2
2021-07-22 14:15:00 89.8 26.8 51.2 89.8 89.8 3.5 6.5 4.2 126.5 159.2 0.00 0.3244275 78.2
2021-07-22 14:20:00 89.3 27.1 51.1 89.3 89.3 6.3 8.0 6.2 168.4 161.7 0.00 0.2207907 78.2
2021-07-22 14:25:00 88.9 24.2 47.6 88.9 88.9 5.5 7.6 5.6 146.1 147.5 0.00 0.1250330 78.3
2021-07-22 14:30:00 88.7 26.3 49.7 88.7 88.7 4.0 5.8 3.6 148.3 146.1 0.00 0.1094566 78.3
2021-07-22 14:35:00 89.0 29.2 52.8 89.0 89.0 4.2 7.2 4.7 164.8 140.4 0.00 0.2197486 78.3
2021-07-22 14:40:00 89.2 28.9 52.7 89.2 89.2 4.0 6.9 4.8 132.4 172.1 0.00 0.3014131 78.3
2021-07-22 14:45:00 90.0 23.2 47.6 90.0 90.0 3.0 6.5 4.2 223.1 176.4 0.00 0.3034035 78.4
2021-07-22 14:50:00 90.2 25.1 49.8 90.2 90.2 6.5 6.9 4.4 181.0 160.3 0.00 0.2617873 78.4
2021-07-22 14:55:00 90.0 27.9 52.5 90.0 90.0 6.0 9.7 6.0 141.6 149.5 0.00 0.2171123 78.4
2021-07-22 15:00:00 90.0 24.8 49.3 90.0 90.0 6.5 12.4 7.7 219.6 181.5 0.00 0.1936335 78.5
2021-07-22 15:05:00 90.3 26.0 50.8 90.3 90.3 7.8 8.0 5.5 152.4 186.4 0.00 0.2554861 78.5
2021-07-22 15:10:00 90.5 20.9 45.1 90.5 90.5 7.1 8.8 7.0 140.9 156.5 0.00 0.2645795 78.5
2021-07-22 15:15:00 90.0 21.0 44.9 90.0 90.0 9.6 9.6 7.7 170.5 154.3 0.00 0.1837664 78.5
2021-07-22 15:20:00 90.3 22.7 47.2 90.3 90.3 9.4 10.5 8.6 154.9 159.8 0.00 0.2750338 78.6
2021-07-22 15:25:00 90.3 18.6 41.9 90.3 90.3 7.1 9.6 7.7 159.8 152.7 0.00 0.2346596 78.6
2021-07-22 15:30:00 90.9 20.6 45.0 90.9 90.9 5.6 6.9 4.8 117.1 136.0 0.00 0.2183233 78.7
2021-07-22 15:35:00 90.3 22.4 46.7 90.3 90.3 7.8 9.6 6.9 149.5 149.5 0.00 0.1653650 78.7
2021-07-22 15:40:00 89.9 22.0 45.9 89.9 89.9 7.1 8.0 6.7 166.6 163.7 0.00 0.1513421 78.7
2021-07-22 15:45:00 89.8 23.8 47.9 89.8 89.8 5.8 8.7 5.7 149.9 155.5 0.00 0.1165607 78.7
2021-07-22 15:50:00 90.7 24.7 49.8 90.7 90.7 4.7 6.2 4.6 162.2 148.2 0.00 0.2576125 78.7
2021-07-22 15:55:00 91.3 20.0 44.5 91.3 91.3 6.3 7.2 5.0 149.2 162.2 0.00 0.2109261 78.8
2021-07-22 16:00:00 90.6 23.1 47.8 90.6 90.6 2.2 6.5 4.0 195.9 167.0 0.00 0.1074265 78.8
2021-07-22 16:05:00 90.0 25.5 49.9 90.0 90.0 3.7 5.6 4.0 119.2 141.2 0.00 0.0875673 78.8
2021-07-22 16:10:00 89.3 26.2 50.2 89.3 89.3 3.8 5.3 3.8 131.8 126.9 0.00 0.0823749 78.8
2021-07-22 16:15:00 89.0 28.0 51.7 89.0 89.0 3.8 5.5 4.0 147.9 129.2 0.00 0.1118060 78.9
2021-07-22 16:20:00 89.2 28.9 52.7 89.2 89.2 6.2 6.2 4.0 151.0 135.0 0.00 0.1364828 78.9
2021-07-22 16:25:00 88.2 32.4 54.9 88.2 88.2 3.7 6.7 4.9 134.0 138.9 0.00 0.0928447 78.9
2021-07-22 16:30:00 87.8 29.5 52.1 87.8 87.8 5.6 8.3 5.8 153.3 136.9 0.00 0.0810274 78.9
2021-07-22 16:35:00 87.7 28.6 51.2 87.7 87.7 5.3 8.5 6.4 136.1 139.2 0.00 0.1134347 78.9
2021-07-22 16:40:00 88.2 29.7 52.6 88.2 88.2 5.8 9.7 6.6 145.5 160.5 0.00 0.1251780 78.9
2021-07-22 16:45:00 87.8 30.4 52.9 87.8 87.8 6.0 7.6 5.6 158.7 141.9 0.00 0.0998425 78.9
2021-07-22 16:50:00 87.7 29.9 52.3 87.7 87.7 5.3 5.8 4.6 113.1 139.9 0.00 0.1014595 79.0
2021-07-22 16:55:00 88.1 29.0 51.8 88.1 88.1 4.7 7.1 4.9 158.4 131.9 0.00 0.1439608 79.0
2021-07-22 17:00:00 88.5 27.9 51.2 88.5 88.5 4.7 7.2 4.7 133.6 137.5 0.00 0.1244614 79.0
2021-07-22 17:05:00 88.3 32.1 54.7 88.3 88.3 2.8 5.3 3.9 141.9 147.4 0.00 0.0751454 79.0
2021-07-22 17:10:00 88.2 31.4 54.1 88.2 88.2 4.6 6.0 4.1 174.6 149.8 0.00 0.1141901 79.0
2021-07-22 17:15:00 89.3 25.4 49.3 89.3 89.3 5.1 6.9 5.1 166.5 158.1 0.00 0.1778676 79.0
2021-07-22 17:20:00 89.7 24.4 48.6 89.7 89.7 5.3 8.0 5.2 127.5 145.6 0.00 0.1644081 79.0
2021-07-22 17:25:00 90.2 26.7 51.4 90.2 90.2 3.3 5.6 4.1 159.2 136.8 0.00 0.1521849 79.0
2021-07-22 17:30:00 90.0 26.5 51.0 90.0 90.0 5.5 6.0 4.4 167.0 160.2 0.00 0.1201283 79.0
2021-07-22 17:35:00 89.2 30.4 54.1 89.2 89.2 5.5 6.9 5.3 125.2 156.8 0.00 0.0879457 79.0
2021-07-22 17:40:00 88.7 29.5 52.8 88.7 88.7 3.8 6.3 5.0 123.4 140.2 0.00 0.0727390 79.0
2021-07-22 17:45:00 88.2 29.5 52.4 88.2 88.2 4.7 6.3 4.4 166.9 143.5 0.00 0.0868512 79.0
2021-07-22 17:50:00 88.0 31.5 54.0 88.0 88.0 4.2 7.2 4.1 151.4 168.4 0.00 0.0609923 79.0
2021-07-22 17:55:00 87.7 32.9 55.0 87.7 87.7 1.9 5.3 3.6 140.5 146.5 0.00 0.0499087 79.0
2021-07-22 18:00:00 87.6 34.3 56.0 87.6 87.6 2.2 4.2 2.3 113.7 165.5 0.00 0.0570632 79.0
2021-07-22 18:05:00 87.5 31.7 53.7 87.5 87.5 4.2 4.2 2.9 133.7 127.5 0.00 0.1088905 79.0
2021-07-22 18:10:00 87.9 34.4 56.4 87.9 87.9 2.8 4.0 2.8 216.3 216.9 0.00 0.0976806 79.0
2021-07-22 18:15:00 88.6 33.0 55.8 88.6 88.6 3.5 3.5 2.2 146.1 152.0 0.00 0.0978721 79.0
2021-07-22 18:20:00 88.4 33.2 55.8 88.4 88.4 3.1 3.8 2.9 132.0 158.8 0.00 0.0626830 79.0
2021-07-22 18:25:00 87.8 33.6 55.7 87.8 87.8 2.6 4.2 3.0 130.0 138.1 0.00 0.0419552 79.0
2021-07-22 18:30:00 87.2 33.3 54.9 87.2 87.2 2.4 3.3 2.1 111.3 126.1 0.00 0.0434342 79.0
2021-07-22 18:35:00 87.0 35.9 56.7 87.0 87.0 0.8 2.6 1.6 326.5 128.0 0.00 0.0539669 79.0
2021-07-22 18:40:00 87.9 35.6 57.4 87.9 87.9 2.6 2.8 1.7 216.4 273.8 0.00 0.0817368 79.0
2021-07-22 18:45:00 88.2 33.7 56.1 88.2 88.2 3.0 5.1 2.7 133.3 207.4 0.00 0.0838697 79.0
2021-07-22 18:50:00 87.6 35.8 57.2 87.6 87.6 2.6 4.9 3.4 100.2 148.7 0.00 0.0768119 79.0
2021-07-22 18:55:00 87.4 35.8 57.0 87.4 87.4 2.4 4.9 3.4 143.3 134.5 0.00 0.0716282 79.1
2021-07-22 19:00:00 87.3 34.6 56.0 87.3 87.3 3.7 5.3 3.6 128.7 142.1 0.00 0.0636271 79.0
2021-07-22 19:05:00 87.0 36.4 57.1 87.0 87.0 3.5 4.6 3.8 125.3 134.3 0.00 0.0554192 79.0
2021-07-22 19:10:00 86.7 36.8 57.2 86.7 86.7 3.5 3.5 2.9 132.1 134.9 0.00 0.0472271 79.1
2021-07-22 19:15:00 86.5 38.1 58.0 86.5 86.5 2.6 3.3 2.6 135.6 139.1 0.00 0.0393671 79.1
2021-07-22 19:20:00 85.6 38.3 57.3 85.6 85.6 3.5 4.6 3.2 121.7 138.4 0.00 0.0319412 79.0
2021-07-22 19:25:00 85.0 39.6 57.7 85.0 85.0 3.8 4.9 3.5 159.4 149.1 0.00 0.0249113 79.1
2021-07-22 19:30:00 84.3 37.6 55.7 84.3 84.3 4.0 5.1 3.9 146.8 139.9 0.00 0.0155684 79.0
2021-07-22 19:35:00 83.8 38.1 55.5 83.8 83.8 2.2 4.2 3.4 143.4 155.9 0.00 0.0124569 79.0
2021-07-22 19:40:00 83.0 39.4 55.8 83.0 83.0 3.1 4.7 3.1 155.4 128.8 0.00 0.0148730 79.0
2021-07-22 19:45:00 82.4 39.0 55.0 82.4 82.4 3.1 4.0 3.0 130.3 136.1 0.00 0.0088785 79.0
2021-07-22 19:50:00 82.3 40.2 55.7 82.3 81.7 3.0 3.8 3.2 118.7 132.4 0.00 0.0052114 79.0
2021-07-22 19:55:00 81.8 40.4 55.5 81.8 81.4 2.6 3.1 2.7 148.8 133.1 0.00 0.0023386 79.0
2021-07-22 20:00:00 81.5 40.9 55.4 81.5 81.1 2.4 2.8 2.4 135.7 135.1 0.00 0.0010393 79.0
2021-07-22 20:05:00 81.3 42.4 56.3 81.3 81.1 1.3 2.2 1.8 129.2 134.3 0.00 0.0003668 79.0
2021-07-22 20:10:00 81.0 42.0 55.8 81.0 80.8 0.0 2.1 1.2 77.9 140.0 0.00 0.0000195 79.0
2021-07-22 20:15:00 80.3 43.5 56.1 80.3 80.5 1.0 1.5 1.0 274.9 291.8 0.00 0.0000000 79.0
2021-07-22 20:20:00 79.6 43.6 55.5 79.6 79.6 0.0 1.5 0.7 113.7 252.8 0.00 0.0000000 79.0
2021-07-22 20:25:00 78.8 46.8 56.7 78.8 78.8 0.0 1.0 0.2 208.2 204.3 0.00 0.0000000 79.0
2021-07-22 20:30:00 78.2 48.1 56.9 78.2 78.2 0.0 0.8 0.0 272.2 220.1 0.00 0.0000000 79.0
2021-07-22 20:35:00 77.7 48.7 56.8 77.7 77.7 0.0 0.0 0.0 264.3 0.0 0.00 0.0000000 79.0
2021-07-22 20:40:00 77.0 53.8 59.0 77.0 77.0 5.1 5.3 2.9 293.8 300.5 0.00 0.0000000 78.9
2021-07-22 20:45:00 77.0 48.8 56.3 77.0 77.0 2.6 7.6 4.2 265.0 282.2 0.00 0.0000000 78.9
2021-07-22 20:50:00 77.3 50.4 57.4 77.3 77.3 2.2 3.0 2.2 295.0 241.5 0.00 0.0000000 78.9
2021-07-22 20:55:00 77.0 51.7 57.8 77.0 77.0 1.5 3.8 1.8 235.6 291.5 0.00 0.0000000 78.9
2021-07-22 21:00:00 76.5 55.9 59.6 76.5 76.5 3.0 3.0 2.0 313.8 287.5 0.00 0.0000000 78.9
2021-07-22 21:05:00 75.7 57.9 59.9 75.7 75.7 1.3 3.0 2.1 21.9 317.5 0.00 0.0000000 78.9
2021-07-22 21:10:00 75.2 59.1 59.9 75.2 75.2 0.8 1.5 1.2 264.9 1.4 0.00 0.0000000 78.8
2021-07-22 21:15:00 74.9 51.6 55.9 74.9 74.9 3.7 4.4 1.8 234.8 236.8 0.00 0.0000000 78.8
2021-07-22 21:20:00 77.3 46.0 54.9 77.3 77.3 3.1 5.1 3.7 237.4 238.5 0.00 0.0000000 78.8
2021-07-22 21:25:00 77.5 48.3 56.4 77.5 77.5 2.4 4.6 2.6 291.5 271.8 0.00 0.0000000 78.8
2021-07-22 21:30:00 75.4 58.5 59.9 75.4 75.4 5.6 6.5 4.1 326.5 320.0 0.00 0.0000000 78.8
2021-07-22 21:35:00 75.8 50.3 56.0 75.8 75.8 3.5 6.9 5.6 330.4 322.5 0.00 0.0000000 78.8
2021-07-22 21:40:00 76.1 51.9 57.1 76.1 76.1 5.3 5.6 4.6 308.3 311.1 0.00 0.0000000 78.7
2021-07-22 21:45:00 75.7 51.5 56.6 75.7 75.7 4.7 6.5 5.3 298.4 308.2 0.00 0.0000000 78.7
2021-07-22 21:50:00 76.7 48.2 55.7 76.7 76.7 4.4 6.5 5.1 307.2 317.4 0.00 0.0000000 78.7
2021-07-22 21:55:00 77.0 47.9 55.8 77.0 77.0 5.8 6.3 4.7 333.1 320.3 0.00 0.0000000 78.7
2021-07-22 22:00:00 76.7 48.5 55.8 76.7 76.7 4.4 6.5 5.0 339.9 330.0 0.00 0.0000000 78.7
2021-07-22 22:05:00 77.5 45.1 54.6 77.5 77.5 4.6 6.2 4.9 345.9 338.8 0.00 0.0000000 78.6
2021-07-22 22:10:00 78.2 44.3 54.7 78.2 78.2 5.6 5.6 5.0 337.2 336.7 0.00 0.0000000 78.6
2021-07-22 22:15:00 77.9 45.7 55.3 77.9 77.9 4.7 5.5 4.5 327.6 331.7 0.00 0.0000000 78.6
2021-07-22 22:20:00 77.9 44.5 54.5 77.9 77.9 4.2 6.7 4.6 328.0 330.4 0.00 0.0000000 78.6
2021-07-22 22:25:00 77.9 43.7 54.1 77.9 77.9 3.3 5.1 3.8 13.0 349.3 0.00 0.0000000 78.5
2021-07-22 22:30:00 78.2 43.0 53.8 78.2 78.2 3.8 4.6 3.7 0.1 6.0 0.00 0.0000000 78.5
2021-07-22 22:35:00 78.2 42.4 53.5 78.2 78.2 2.8 4.0 3.4 13.0 5.9 0.00 0.0000000 78.5
2021-07-22 22:40:00 78.5 41.4 53.1 78.5 78.5 4.9 5.8 3.9 340.5 1.5 0.00 0.0000000 78.5
2021-07-22 22:45:00 78.9 40.8 53.0 78.9 78.9 6.0 8.8 5.9 1.7 2.4 0.00 0.0000000 78.5
2021-07-22 22:50:00 78.7 41.0 53.0 78.7 78.7 3.3 5.8 4.4 343.4 352.0 0.00 0.0000000 78.4
2021-07-22 22:55:00 78.4 41.5 53.1 78.4 78.4 3.0 5.3 3.7 344.2 341.7 0.00 0.0000000 78.4
2021-07-22 23:00:00 78.1 41.8 53.0 78.1 78.1 3.1 5.1 3.2 334.0 340.8 0.00 0.0000000 78.4
2021-07-22 23:05:00 77.5 43.7 53.7 77.5 77.5 2.4 3.3 2.7 313.9 332.1 0.00 0.0000000 78.4
2021-07-22 23:10:00 76.8 46.3 54.6 76.8 76.8 2.4 3.1 2.3 260.4 297.0 0.00 0.0000000 78.4
2021-07-22 23:15:00 75.7 50.7 56.2 75.7 75.7 1.9 2.6 1.9 204.5 260.6 0.00 0.0000000 78.4
2021-07-22 23:20:00 74.5 52.7 56.1 74.5 74.5 3.0 3.0 2.0 249.6 245.9 0.00 0.0000000 78.3
2021-07-22 23:25:00 73.4 57.2 57.3 73.4 73.4 2.1 3.0 2.1 302.3 268.7 0.00 0.0000000 78.3
2021-07-22 23:30:00 71.8 62.7 58.4 71.8 71.8 2.2 2.6 2.2 302.4 298.7 0.00 0.0000000 78.3
2021-07-22 23:35:00 71.0 65.9 59.0 71.0 71.0 2.8 3.0 2.5 290.4 289.6 0.00 0.0000000 78.2
2021-07-22 23:40:00 70.5 66.2 58.6 70.5 70.5 2.6 3.0 2.5 311.9 293.2 0.00 0.0000000 78.2
2021-07-22 23:45:00 70.6 65.5 58.5 70.6 70.6 2.4 4.0 2.7 302.6 304.9 0.00 0.0000000 78.2
2021-07-22 23:50:00 70.6 65.4 58.4 70.6 70.6 2.4 3.1 2.5 287.3 293.5 0.00 0.0000000 78.2
2021-07-22 23:55:00 70.6 64.3 58.0 70.6 70.6 2.1 2.6 2.2 303.7 292.4 0.00 0.0000000 78.2
2021-07-23 00:00:00 70.4 66.8 58.8 70.4 70.4 2.6 2.6 2.1 309.6 306.0 0.00 0.0000000 78.1

Data is courtesy of the NM Climate Center. DO NOT USE IN LEGAL PROCEEDINGS.